createdAt,value
2019-05-17T00:02:23.233Z,9.81
2019-05-17T00:04:50.711Z,9.79
2019-05-17T00:07:18.165Z,9.73
2019-05-17T00:09:47.695Z,9.73
2019-05-17T00:12:16.600Z,9.71
2019-05-17T00:14:51.143Z,9.76
2019-05-17T00:17:26.624Z,9.76
2019-05-17T00:19:59.570Z,9.79
2019-05-17T00:22:47.133Z,9.72
2019-05-17T00:25:21.110Z,9.82
2019-05-17T00:27:58.070Z,9.76
2019-05-17T00:30:26.596Z,9.72
2019-05-17T00:32:54.239Z,9.76
2019-05-17T00:35:21.395Z,9.79
2019-05-17T00:37:48.661Z,9.80
2019-05-17T00:40:18.812Z,9.68
2019-05-17T00:42:46.730Z,9.64
2019-05-17T00:45:14.673Z,9.76
2019-05-17T00:47:41.897Z,9.82
2019-05-17T00:50:12.634Z,9.79
2019-05-17T00:52:40.153Z,9.73
2019-05-17T00:55:08.120Z,9.75
2019-05-17T00:57:36.841Z,9.68
2019-05-17T01:00:08.288Z,9.67
2019-05-17T01:02:36.337Z,9.60
2019-05-17T01:05:06.378Z,9.65
2019-05-17T01:07:33.677Z,9.58
2019-05-17T01:10:00.933Z,9.64
2019-05-17T01:12:28.204Z,9.61
2019-05-17T01:14:55.353Z,9.59
2019-05-17T01:17:22.517Z,9.66
2019-05-17T01:19:49.886Z,9.64
2019-05-17T01:22:17.241Z,9.70
2019-05-17T01:24:46.279Z,9.74
2019-05-17T01:27:13.876Z,9.73
2019-05-17T01:29:41.148Z,9.77
2019-05-17T01:32:08.455Z,9.76
2019-05-17T01:34:37.617Z,9.65
2019-05-17T01:37:06.504Z,9.73
2019-05-17T01:39:34.119Z,9.77
2019-05-17T01:42:01.305Z,9.78
2019-05-17T01:44:28.518Z,9.73
2019-05-17T01:46:56.723Z,9.69
2019-05-17T01:49:24.033Z,9.77
2019-05-17T01:51:51.175Z,9.79
2019-05-17T01:54:18.326Z,9.74
2019-05-17T01:56:46.296Z,9.78
2019-05-17T01:59:13.728Z,9.76
2019-05-17T02:01:42.686Z,9.67
2019-05-17T02:04:09.927Z,9.72
2019-05-17T02:06:37.087Z,9.77
2019-05-17T02:09:06.356Z,9.72
2019-05-17T02:11:33.744Z,9.74
2019-05-17T02:14:01.119Z,9.71
2019-05-17T02:16:28.396Z,9.71
2019-05-17T02:18:57.320Z,9.80
2019-05-17T02:21:24.716Z,9.76
2019-05-17T02:23:51.905Z,9.68
2019-05-17T02:26:19.270Z,9.74
2019-05-17T02:28:46.639Z,9.69
2019-05-17T02:31:14.300Z,9.54
2019-05-17T02:33:43.028Z,9.62
2019-05-17T02:36:13.918Z,9.71
2019-05-17T02:38:39.703Z,9.65
2019-05-17T02:41:07.046Z,9.72
2019-05-17T02:43:34.320Z,9.78
2019-05-17T02:46:03.691Z,9.69
2019-05-17T02:48:33.888Z,9.70
2019-05-17T02:51:03.157Z,9.68
2019-05-17T02:53:29.168Z,9.74
2019-05-17T02:55:56.328Z,9.80
2019-05-17T02:58:23.614Z,9.65
2019-05-17T03:00:53.298Z,9.65
2019-05-17T03:03:23.447Z,9.63
2019-05-17T03:05:49.359Z,9.66
2019-05-17T03:08:16.742Z,9.71
2019-05-17T03:10:44.093Z,9.65
2019-05-17T03:13:13.226Z,9.66
2019-05-17T03:15:43.189Z,9.73
2019-05-17T03:18:09.686Z,9.71
2019-05-17T03:20:36.961Z,9.73
2019-05-17T03:23:04.326Z,9.68
2019-05-17T03:25:33.532Z,9.64
2019-05-17T03:28:02.917Z,9.56
2019-05-17T03:30:36.168Z,9.62
2019-05-17T03:33:06.182Z,9.58
2019-05-17T03:35:36.724Z,9.56
2019-05-17T03:38:03.497Z,9.58
2019-05-17T03:41:01.074Z,9.60
2019-05-17T03:43:02.561Z,9.55
2019-05-17T03:45:28.741Z,9.66
2019-05-17T03:47:56.180Z,9.58
2019-05-17T03:50:23.439Z,9.54
2019-05-17T03:52:53.578Z,9.62
2019-05-17T03:55:23.218Z,9.60
2019-05-17T03:57:52.999Z,9.56
2019-05-17T04:00:22.962Z,9.60
2019-05-17T04:02:48.588Z,9.63
2019-05-17T04:05:15.856Z,9.65
2019-05-17T04:07:43.887Z,9.71
2019-05-17T04:10:15.187Z,9.72
2019-05-17T04:12:44.051Z,9.55
2019-05-17T04:15:14.605Z,9.48
2019-05-17T04:17:44.064Z,9.61
2019-05-17T04:20:13.537Z,9.61
2019-05-17T04:22:44.369Z,9.63
2019-05-17T04:25:13.461Z,9.73
2019-05-17T04:27:43.646Z,9.78
2019-05-17T04:30:12.547Z,9.70
2019-05-17T04:32:39.925Z,9.79
2019-05-17T04:35:08.592Z,9.79
2019-05-17T04:37:38.396Z,9.80
2019-05-17T04:40:05.321Z,9.75
2019-05-17T04:42:33.201Z,9.77
2019-05-17T04:45:03.754Z,9.77
2019-05-17T04:47:32.947Z,9.83
2019-05-17T04:49:59.002Z,9.89
2019-05-17T04:52:26.172Z,9.88
2019-05-17T04:54:53.968Z,9.88
2019-05-17T04:57:23.141Z,9.87
2019-05-17T04:59:52.377Z,9.90
2019-05-17T05:02:19.707Z,9.97
2019-05-17T05:04:46.983Z,10.06
2019-05-17T05:07:14.341Z,10.12
2019-05-17T05:09:42.931Z,10.26
2019-05-17T05:12:12.532Z,10.15
2019-05-17T05:14:39.707Z,10.33
2019-05-17T05:17:06.863Z,10.42
2019-05-17T05:19:34.136Z,10.32
2019-05-17T05:22:04.570Z,10.35
2019-05-17T05:24:31.531Z,10.36
2019-05-17T05:26:58.802Z,10.35
2019-05-17T05:29:26.085Z,10.33
2019-05-17T05:31:53.230Z,10.35
2019-05-17T05:34:21.604Z,10.33
2019-05-17T05:36:48.973Z,10.36
2019-05-17T05:39:16.235Z,10.33
2019-05-17T05:41:43.415Z,10.39
2019-05-17T05:44:12.232Z,10.43
2019-05-17T05:46:42.246Z,10.46
2019-05-17T05:49:09.424Z,10.48
2019-05-17T05:51:36.682Z,10.47
2019-05-17T05:54:04.260Z,10.52
2019-05-17T05:56:32.605Z,10.57
2019-05-17T05:59:02.703Z,10.62
2019-05-17T06:01:29.656Z,10.76
2019-05-17T06:03:56.849Z,10.75
2019-05-17T06:06:24.217Z,10.80
2019-05-17T06:08:52.113Z,10.85
2019-05-17T06:11:21.542Z,10.83
2019-05-17T06:13:49.150Z,10.94
2019-05-17T06:16:16.514Z,11.03
2019-05-17T06:18:43.870Z,10.92
2019-05-17T06:21:12.210Z,10.99
2019-05-17T06:23:42.226Z,10.94
2019-05-17T06:26:08.942Z,11.02
2019-05-17T06:28:36.108Z,11.12
2019-05-17T06:31:03.344Z,11.17
2019-05-17T06:33:34.606Z,11.16
2019-05-17T06:36:02.682Z,11.07
2019-05-17T06:38:29.609Z,11.09
2019-05-17T06:40:56.964Z,11.10
2019-05-17T06:43:24.392Z,11.03
2019-05-17T06:45:52.260Z,11.03
2019-05-17T06:48:22.313Z,11.11
2019-05-17T06:50:48.886Z,11.12
2019-05-17T06:53:16.062Z,11.12
2019-05-17T06:55:44.489Z,11.20
2019-05-17T06:58:12.188Z,11.16
2019-05-17T07:00:40.434Z,11.21
2019-05-17T07:03:09.541Z,11.05
2019-05-17T07:05:40.354Z,11.01
2019-05-17T07:08:10.730Z,10.98
2019-05-17T07:10:39.639Z,11.00
2019-05-17T07:13:06.657Z,11.10
2019-05-17T07:15:43.653Z,11.11
2019-05-17T07:18:03.361Z,11.21
2019-05-17T07:20:30.852Z,11.34
2019-05-17T07:23:00.363Z,11.30
2019-05-17T07:25:27.503Z,11.34
2019-05-17T07:27:54.783Z,11.37
2019-05-17T07:30:22.757Z,11.30
2019-05-17T07:32:50.119Z,11.24
2019-05-17T07:35:19.596Z,11.27
2019-05-17T07:37:46.837Z,11.25
2019-05-17T07:40:14.481Z,11.27
2019-05-17T07:42:41.650Z,11.38
2019-05-17T07:45:10.308Z,11.61
2019-05-17T07:47:40.403Z,11.63
2019-05-17T07:52:30.521Z,11.92
2019-05-17T07:55:02.383Z,12.03
2019-05-17T07:57:27.029Z,12.08
2019-05-17T07:59:54.182Z,12.21
2019-05-17T08:02:21.448Z,12.19
2019-05-17T08:04:50.130Z,12.23
2019-05-17T08:07:19.676Z,12.35
2019-05-17T08:09:47.052Z,12.46
2019-05-17T08:12:14.314Z,12.59
2019-05-17T08:14:41.575Z,12.78
2019-05-17T08:17:10.211Z,12.85
2019-05-17T08:19:40.131Z,13.04
2019-05-17T08:22:09.639Z,13.21
2019-05-17T08:24:36.408Z,13.39
2019-05-17T08:27:03.880Z,13.66
2019-05-17T08:29:31.271Z,13.88
2019-05-17T08:32:01.769Z,14.11
2019-05-17T08:34:29.343Z,14.37
2019-05-17T08:36:56.638Z,14.65
2019-05-17T08:39:23.799Z,14.94
2019-05-17T08:41:50.950Z,14.85
2019-05-17T08:44:19.270Z,15.01
2019-05-17T08:46:46.819Z,15.23
2019-05-17T08:49:14.174Z,15.27
2019-05-17T08:51:41.691Z,15.41
2019-05-17T08:54:10.379Z,15.64
2019-05-17T08:56:40.194Z,15.65
2019-05-17T08:59:09.588Z,15.95
2019-05-17T09:01:40.983Z,16.23
2019-05-17T09:04:05.976Z,16.46
2019-05-17T09:06:33.250Z,16.62
2019-05-17T09:09:00.909Z,16.55
2019-05-17T09:11:30.290Z,16.34
2019-05-17T09:14:01.673Z,16.41
2019-05-17T09:16:27.014Z,16.40
2019-05-17T09:18:54.160Z,16.71
2019-05-17T09:21:21.964Z,16.85
2019-05-17T09:23:50.348Z,17.15
2019-05-17T09:26:19.861Z,17.16
2019-05-17T09:28:46.927Z,17.01
2019-05-17T09:31:14.192Z,17.53
2019-05-17T09:33:41.708Z,17.38
2019-05-17T09:36:10.146Z,17.62
2019-05-17T09:38:40.184Z,18.06
2019-05-17T09:41:09.210Z,17.95
2019-05-17T09:43:36.548Z,18.29
2019-05-17T09:46:03.978Z,18.36
2019-05-17T09:48:31.390Z,18.39
2019-05-17T09:50:59.966Z,18.81
2019-05-17T09:53:27.439Z,18.88
2019-05-17T09:55:54.807Z,19.10
2019-05-17T09:58:22.116Z,19.18
2019-05-17T10:00:49.628Z,19.40
2019-05-17T10:03:17.066Z,19.23
2019-05-17T10:05:44.608Z,19.35
2019-05-17T10:08:12.118Z,19.22
2019-05-17T10:10:40.208Z,19.48
2019-05-17T10:13:09.765Z,19.74
2019-05-17T10:15:37.087Z,20.25
2019-05-17T10:18:04.248Z,20.64
2019-05-17T10:20:31.498Z,20.90
2019-05-17T10:22:59.579Z,20.82
2019-05-17T10:25:29.357Z,20.53
2019-05-17T10:27:56.478Z,20.80
2019-05-17T10:30:24.068Z,21.46
2019-05-17T10:32:51.378Z,21.86
2019-05-17T10:35:19.945Z,21.93
2019-05-17T10:37:50.350Z,21.31
2019-05-17T10:40:20.792Z,21.76
2019-05-17T10:42:50.001Z,21.62
2019-05-17T10:45:19.837Z,22.37
2019-05-17T10:47:47.308Z,23.22
2019-05-17T10:50:14.950Z,23.97
2019-05-17T10:52:42.468Z,24.98
2019-05-17T10:55:10.603Z,25.03
2019-05-17T10:57:38.099Z,25.43
2019-05-17T11:00:06.837Z,25.86
2019-05-17T11:02:34.214Z,25.99
2019-05-17T11:05:04.590Z,25.27
2019-05-17T11:07:31.878Z,25.19
2019-05-17T11:10:00.304Z,24.85
2019-05-17T11:12:28.167Z,25.12
2019-05-17T11:15:09.829Z,24.98
2019-05-17T11:17:25.189Z,24.69
2019-05-17T11:19:52.569Z,24.63
2019-05-17T11:22:20.147Z,24.43
2019-05-17T11:24:47.470Z,24.89
2019-05-17T11:27:15.107Z,24.69
2019-05-17T11:29:42.493Z,25.42
2019-05-17T11:32:10.067Z,25.61
2019-05-17T11:34:37.542Z,26.12
2019-05-17T11:37:05.002Z,26.61
2019-05-17T11:39:32.532Z,27.06
2019-05-17T11:41:59.888Z,27.41
2019-05-17T11:44:27.226Z,28.13
2019-05-17T11:46:54.712Z,28.26
2019-05-17T11:49:22.154Z,28.17
2019-05-17T11:52:03.233Z,28.06
2019-05-17T11:54:30.840Z,27.96
2019-05-17T11:56:58.199Z,28.15
2019-05-17T11:59:25.601Z,27.28
2019-05-17T12:02:02.586Z,27.04
2019-05-17T12:04:36.326Z,26.67
2019-05-17T12:07:04.101Z,26.68
2019-05-17T12:09:37.416Z,26.60
2019-05-17T12:12:00.319Z,26.64
2019-05-17T12:14:27.647Z,26.80
2019-05-17T12:16:54.785Z,27.01
2019-05-17T12:19:22.395Z,26.63
2019-05-17T12:21:49.540Z,26.74
2019-05-17T12:24:16.918Z,27.06
2019-05-17T12:26:47.368Z,27.37
2019-05-17T12:29:13.809Z,28.05
2019-05-17T12:31:41.981Z,28.20
2019-05-17T12:34:09.362Z,28.92
2019-05-17T12:36:36.609Z,29.21
2019-05-17T12:39:05.929Z,29.50
2019-05-17T12:41:33.263Z,29.56
2019-05-17T12:44:00.821Z,29.79
2019-05-17T12:46:28.289Z,29.63
2019-05-17T12:48:55.450Z,29.93
2019-05-17T12:51:22.704Z,28.85
2019-05-17T12:53:49.962Z,28.42
2019-05-17T12:56:17.237Z,28.21
2019-05-17T12:58:44.517Z,27.75
2019-05-17T13:01:11.689Z,26.95
2019-05-17T13:03:38.920Z,26.73
2019-05-17T13:06:06.182Z,26.02
2019-05-17T13:08:33.332Z,25.82
2019-05-17T13:11:00.581Z,25.64
2019-05-17T13:13:27.850Z,25.71
2019-05-17T13:15:55.109Z,25.45
2019-05-17T13:18:22.413Z,25.82
2019-05-17T13:20:49.596Z,25.90
2019-05-17T13:23:16.824Z,25.53
2019-05-17T13:25:44.274Z,25.14
2019-05-17T13:28:11.434Z,25.65
2019-05-17T13:30:38.677Z,25.52
2019-05-17T13:33:06.014Z,25.38
2019-05-17T13:35:33.199Z,25.42
2019-05-17T13:38:00.477Z,25.34
2019-05-17T13:40:27.818Z,25.44
2019-05-17T13:42:55.244Z,25.52
2019-05-17T13:45:22.522Z,25.39
2019-05-17T13:47:49.697Z,25.23
2019-05-17T13:50:17.349Z,25.27
2019-05-17T13:52:44.761Z,24.94
2019-05-17T13:55:12.498Z,24.98
2019-05-17T13:57:39.760Z,25.01
2019-05-17T14:00:07.832Z,24.94
2019-05-17T14:02:35.245Z,25.03
2019-05-17T14:05:03.201Z,24.97
2019-05-17T14:07:30.712Z,25.02
2019-05-17T14:09:58.119Z,24.78
2019-05-17T14:14:52.527Z,25.03
2019-05-17T14:17:19.673Z,24.91
2019-05-17T14:19:46.927Z,24.64
2019-05-17T14:22:14.331Z,24.85
2019-05-17T14:24:41.696Z,24.13
2019-05-17T14:27:08.847Z,24.34
2019-05-17T14:29:36.047Z,24.50
2019-05-17T14:32:03.686Z,23.84
2019-05-17T14:34:32.188Z,23.83
2019-05-17T14:36:59.494Z,23.48
2019-05-17T14:39:27.131Z,23.41
2019-05-17T14:41:54.408Z,23.69
2019-05-17T14:44:21.546Z,23.47
2019-05-17T14:46:48.795Z,23.43
2019-05-17T14:49:15.953Z,23.01
2019-05-17T14:51:43.373Z,22.65
2019-05-17T14:54:10.542Z,22.66
2019-05-17T14:56:38.286Z,22.64
2019-05-17T14:59:05.564Z,22.36
2019-05-17T15:01:33.126Z,22.31
2019-05-17T15:04:00.421Z,22.48
2019-05-17T15:06:27.741Z,22.28
2019-05-17T15:08:55.018Z,22.15
2019-05-17T15:11:22.278Z,22.17
2019-05-17T15:13:49.928Z,22.07
2019-05-17T15:16:17.276Z,21.99
2019-05-17T15:18:44.563Z,21.68
2019-05-17T15:21:11.965Z,21.89
2019-05-17T15:23:39.225Z,21.82
2019-05-17T15:26:06.675Z,21.80
2019-05-17T15:28:33.978Z,21.88
2019-05-17T15:31:01.349Z,21.70
2019-05-17T15:33:28.599Z,21.74
2019-05-17T15:35:55.913Z,21.51
2019-05-17T15:38:23.173Z,21.52
2019-05-17T15:40:50.528Z,21.57
2019-05-17T15:43:17.869Z,21.62
2019-05-17T15:45:45.039Z,21.53
2019-05-17T15:48:12.335Z,21.49
2019-05-17T15:50:39.806Z,21.33
2019-05-17T15:53:07.178Z,21.22
2019-05-17T15:55:34.339Z,21.18
2019-05-17T15:58:01.586Z,21.34
2019-05-17T16:00:28.957Z,21.24
2019-05-17T16:02:56.141Z,21.13
2019-05-17T16:05:23.610Z,21.17
2019-05-17T16:07:50.932Z,21.06
2019-05-17T16:10:18.703Z,21.00
2019-05-17T16:13:01.005Z,21.02
2019-05-17T16:15:15.483Z,20.74
2019-05-17T16:17:42.786Z,20.62
2019-05-17T16:20:16.516Z,20.93
2019-05-17T16:22:42.946Z,20.59
2019-05-17T16:25:10.522Z,20.39
2019-05-17T16:27:38.240Z,20.50
2019-05-17T16:30:07.443Z,20.38
2019-05-17T16:32:36.425Z,20.15
2019-05-17T16:35:04.642Z,20.31
2019-05-17T16:37:31.846Z,20.45
2019-05-17T16:39:59.233Z,20.34
2019-05-17T16:42:26.616Z,20.45
2019-05-17T16:44:57.123Z,20.29
2019-05-17T16:47:24.475Z,20.33
2019-05-17T16:49:51.972Z,20.37
2019-05-17T16:52:24.036Z,20.56
2019-05-17T16:54:51.631Z,20.42
2019-05-17T16:57:19.215Z,20.60
2019-05-17T16:59:46.614Z,20.53
2019-05-17T17:02:14.066Z,20.50
2019-05-17T17:04:43.788Z,20.34
2019-05-17T17:07:11.322Z,20.36
2019-05-17T17:09:38.819Z,20.39
2019-05-17T17:12:06.120Z,20.13
2019-05-17T17:14:33.486Z,20.22
2019-05-17T17:17:00.858Z,20.15
2019-05-17T17:19:28.938Z,20.24
2019-05-17T17:21:56.332Z,20.11
2019-05-17T17:24:23.892Z,20.05
2019-05-17T17:26:52.378Z,19.90
2019-05-17T17:29:19.743Z,19.94
2019-05-17T17:31:46.909Z,20.02
2019-05-17T17:34:14.259Z,19.92
2019-05-17T17:36:41.708Z,19.70
2019-05-17T17:39:09.157Z,19.81
2019-05-17T17:41:36.519Z,19.72
2019-05-17T17:44:04.189Z,19.73
2019-05-17T17:46:31.482Z,19.55
2019-05-17T17:48:58.782Z,19.59
2019-05-17T17:51:26.239Z,19.54
2019-05-17T17:53:53.877Z,19.63
2019-05-17T17:56:21.198Z,19.58
2019-05-17T17:58:48.688Z,19.52
2019-05-17T18:01:16.037Z,19.50
2019-05-17T18:03:43.351Z,19.48
2019-05-17T18:06:10.602Z,19.42
2019-05-17T18:08:37.971Z,19.16
2019-05-17T18:11:05.478Z,19.29
2019-05-17T18:13:32.832Z,19.21
2019-05-17T18:16:00.309Z,19.15
2019-05-17T18:18:27.745Z,19.24
2019-05-17T18:20:55.132Z,19.13
2019-05-17T18:23:23.469Z,19.17
2019-05-17T18:25:51.330Z,19.07
2019-05-17T18:28:18.761Z,18.92
2019-05-17T18:30:46.120Z,18.89
2019-05-17T18:33:13.586Z,18.77
2019-05-17T18:35:41.273Z,18.57
2019-05-17T18:38:08.738Z,18.52
2019-05-17T18:40:36.247Z,18.36
2019-05-17T18:43:04.012Z,18.49
2019-05-17T18:45:31.480Z,18.23
2019-05-17T18:47:59.132Z,18.30
2019-05-17T18:50:27.389Z,18.27
2019-05-17T18:52:55.130Z,18.21
2019-05-17T18:55:22.785Z,18.15
2019-05-17T18:57:50.516Z,18.07
2019-05-17T19:00:18.439Z,17.96
2019-05-17T19:02:45.954Z,17.82
2019-05-17T19:05:13.824Z,17.78
2019-05-17T19:07:41.081Z,17.65
2019-05-17T19:10:08.966Z,17.48
2019-05-17T19:12:36.358Z,17.38
2019-05-17T19:15:04.948Z,17.22
2019-05-17T19:17:32.188Z,17.34
2019-05-17T19:19:59.442Z,17.28
2019-05-17T19:22:26.692Z,17.10
2019-05-17T19:24:54.168Z,16.77
2019-05-17T19:27:21.514Z,16.73
2019-05-17T19:29:48.894Z,16.72
2019-05-17T19:32:16.271Z,16.63
2019-05-17T19:34:43.519Z,16.51
2019-05-17T19:37:10.792Z,16.42
2019-05-17T19:39:38.067Z,16.21
2019-05-17T19:42:05.539Z,16.22
2019-05-17T19:44:32.728Z,16.07
2019-05-17T19:47:00.218Z,16.08
2019-05-17T19:49:27.429Z,16.08
2019-05-17T19:51:54.833Z,15.92
2019-05-17T19:54:22.134Z,15.90
2019-05-17T19:56:49.536Z,15.93
2019-05-17T19:59:16.709Z,15.84
2019-05-17T20:01:43.913Z,15.89
2019-05-17T20:04:11.203Z,15.91
2019-05-17T20:06:38.553Z,15.88
2019-05-17T20:09:06.384Z,15.90
2019-05-17T20:11:34.767Z,15.95
2019-05-17T20:14:02.388Z,15.86
2019-05-17T20:16:29.807Z,15.98
2019-05-17T20:18:57.155Z,16.02
2019-05-17T20:21:24.427Z,15.97
2019-05-17T20:23:51.813Z,15.91
2019-05-17T20:26:19.289Z,15.92
2019-05-17T20:28:46.457Z,15.94
2019-05-17T20:31:13.925Z,15.92
2019-05-17T20:33:41.080Z,15.90
2019-05-17T20:36:08.343Z,15.90
2019-05-17T20:38:35.478Z,15.87
2019-05-17T20:41:02.945Z,15.83
2019-05-17T20:43:30.311Z,15.77
2019-05-17T20:45:57.944Z,15.86
2019-05-17T20:48:26.035Z,15.89
2019-05-17T20:50:53.409Z,15.89
2019-05-17T20:53:20.769Z,15.75
2019-05-17T20:55:48.153Z,15.78
2019-05-17T20:58:15.564Z,15.74
2019-05-17T21:00:43.146Z,15.79
2019-05-17T21:03:13.756Z,15.86
2019-05-17T21:05:39.463Z,15.92
2019-05-17T21:08:07.001Z,15.85
2019-05-17T21:10:34.268Z,15.73
2019-05-17T21:13:01.640Z,15.72
2019-05-17T21:15:28.798Z,15.73
2019-05-17T21:17:56.011Z,15.58
2019-05-17T21:20:23.301Z,15.57
2019-05-17T21:22:50.688Z,15.50
2019-05-17T21:25:18.035Z,15.55
2019-05-17T21:27:45.711Z,15.42
2019-05-17T21:30:13.919Z,15.42
2019-05-17T21:32:41.181Z,15.43
2019-05-17T21:35:08.652Z,15.42
2019-05-17T21:37:36.021Z,15.43
2019-05-17T21:40:04.870Z,15.39
2019-05-17T21:42:32.142Z,15.33
2019-05-17T21:44:59.425Z,15.33
2019-05-17T21:47:26.591Z,15.21
2019-05-17T21:49:53.833Z,15.33
2019-05-17T21:52:21.193Z,15.33
2019-05-17T21:54:48.391Z,15.21
2019-05-17T21:57:15.579Z,15.17
2019-05-17T21:59:42.771Z,15.16
2019-05-17T22:02:10.244Z,15.07
2019-05-17T22:04:37.615Z,15.03
2019-05-17T22:07:05.578Z,14.95
2019-05-17T22:09:32.958Z,14.74
2019-05-17T22:12:03.924Z,14.66
2019-05-17T22:14:31.049Z,14.68
2019-05-17T22:16:58.423Z,14.59
2019-05-17T22:19:25.799Z,14.61
2019-05-17T22:21:53.270Z,14.54
2019-05-17T22:24:20.456Z,14.27
2019-05-17T22:26:47.848Z,14.21
2019-05-17T22:29:15.239Z,14.21
2019-05-17T22:31:42.735Z,14.10
2019-05-17T22:34:10.026Z,14.09
2019-05-17T22:36:37.485Z,13.91
2019-05-17T22:39:06.019Z,13.83
2019-05-17T22:41:33.380Z,13.77
2019-05-17T22:44:00.657Z,13.74
2019-05-17T22:46:36.165Z,13.68
2019-05-17T22:48:57.040Z,13.70
2019-05-17T22:51:24.400Z,13.69
2019-05-17T22:53:51.888Z,13.58
2019-05-17T22:56:19.166Z,13.58
2019-05-17T22:58:46.621Z,13.51
2019-05-17T23:01:13.890Z,13.29
2019-05-17T23:03:41.083Z,13.19
2019-05-17T23:06:08.658Z,13.19
2019-05-17T23:08:36.200Z,13.09
2019-05-17T23:11:03.706Z,13.00
2019-05-17T23:13:30.961Z,13.02
2019-05-17T23:16:06.965Z,12.98
2019-05-17T23:18:35.056Z,12.94
2019-05-17T23:21:03.445Z,12.84
2019-05-17T23:23:30.785Z,12.82
2019-05-17T23:25:58.266Z,12.75
2019-05-17T23:28:25.789Z,12.77
2019-05-17T23:30:53.360Z,12.58
2019-05-17T23:33:20.766Z,12.61
2019-05-17T23:35:48.149Z,12.58
2019-05-17T23:38:15.385Z,12.40
2019-05-17T23:40:42.580Z,12.28
2019-05-17T23:43:09.839Z,12.23
2019-05-17T23:45:37.000Z,12.19
2019-05-17T23:48:04.239Z,12.20
2019-05-17T23:50:31.607Z,12.17
2019-05-17T23:52:58.853Z,12.10
2019-05-17T23:55:26.224Z,12.00
2019-05-17T23:57:53.483Z,11.99
